Time;durP1;ratioP1;P1;durP2;ratioP2;P2;SDS_P1;SDS_P2;PMS_P1;PMS_P2;Temp;Humidity;BMP_temperature;BMP_pressure;BME280_temperature;BME280_humidity;BME280_pressure;Samples;Min_cycle;Max_cycle;Signal;HPM_P1;HPM_P2
2023/04/23 15:26:02;;;;;;;7.57;3.40;;;;;;;;;;7212736;18;50726;-80
2023/04/23 15:28:27;;;;;;;7.18;3.22;;;;;;;;;;7322490;19;20037;-80
2023/04/23 15:30:53;;;;;;;6.57;3.40;;;;;;;;;;7332067;19;20861;-79
2023/04/23 15:33:20;;;;;;;7.93;3.47;;;;;;;;;;7328590;19;20006;-79
2023/04/23 15:35:45;;;;;;;6.68;3.50;;;;;;;;;;7340711;19;20010;-79
2023/04/23 15:38:11;;;;;;;7.03;3.25;;;;;;;;;;7356345;19;20019;-79
2023/04/23 15:40:40;;;;;;;5.18;2.80;;;;;;;;;;7349063;19;20078;-78
2023/04/23 15:43:06;;;;;;;6.82;3.33;;;;;;;;;;7356644;19;20061;-79
2023/04/23 15:45:31;;;;;;;8.05;3.60;;;;;;;;;;7346460;19;20408;-79
2023/04/23 15:47:56;;;;;;;6.70;3.17;;;;;;;;;;7357898;19;20167;-79
2023/04/23 15:50:25;;;;;;;6.35;3.03;;;;;;;;;;7353434;19;20482;-79
2023/04/23 15:52:50;;;;;;;6.60;3.60;;;;;;;;;;7352180;19;20031;-79
2023/04/23 15:55:16;;;;;;;5.93;3.20;;;;;;;;;;7354159;19;20026;-79
2023/04/23 15:57:41;;;;;;;6.60;3.05;;;;;;;;;;7335188;19;20014;-79
2023/04/23 16:00:07;;;;;;;7.27;3.13;;;;;;;;;;7345361;19;20074;-79
2023/04/23 16:02:33;;;;;;;6.18;2.83;;;;;;;;;;7353433;19;20026;-79
2023/04/23 16:04:58;;;;;;;5.95;2.50;;;;;;;;;;7351868;19;20309;-79
2023/04/23 16:07:23;;;;;;;5.67;2.83;;;;;;;;;;7352037;19;20369;-79
2023/04/23 16:09:48;;;;;;;5.77;2.50;;;;;;;;;;7355510;19;20231;-79
2023/04/23 16:12:13;;;;;;;5.03;2.60;;;;;;;;;;7360782;19;20251;-79
2023/04/23 16:14:39;;;;;;;6.03;2.50;;;;;;;;;;7356694;19;20788;-79
2023/04/23 16:17:04;;;;;;;5.03;2.40;;;;;;;;;;7360232;19;20240;-77
2023/04/23 16:19:29;;;;;;;4.10;2.23;;;;;;;;;;7354326;19;20007;-78
2023/04/23 16:21:54;;;;;;;5.25;2.25;;;;;;;;;;7352652;19;20275;-77
2023/04/23 16:24:21;;;;;;;6.72;2.30;;;;;;;;;;7357773;19;20011;-77
2023/04/23 16:26:47;;;;;;;6.70;2.35;;;;;;;;;;7352086;19;20020;-78
2023/04/23 16:29:12;;;;;;;5.20;2.22;;;;;;;;;;7358762;19;20445;-77
2023/04/23 16:31:37;;;;;;;5.65;2.17;;;;;;;;;;7359205;19;20026;-78
2023/04/23 16:34:03;;;;;;;5.13;2.30;;;;;;;;;;7356583;19;20034;-78
2023/04/23 16:36:28;;;;;;;4.95;2.50;;;;;;;;;;7362372;19;20025;-78
2023/04/23 16:38:53;;;;;;;5.50;2.83;;;;;;;;;;7374071;19;20016;-77
2023/04/23 16:41:19;;;;;;;8.30;3.00;;;;;;;;;;7393402;19;19994;-78
2023/04/23 16:43:46;;;;;;;5.40;2.33;;;;;;;;;;7403794;19;20822;-78
2023/04/23 16:46:11;;;;;;;4.63;2.22;;;;;;;;;;7408811;19;20122;-77
2023/04/23 16:48:36;;;;;;;4.68;2.58;;;;;;;;;;7406661;19;20111;-78
2023/04/23 16:51:01;;;;;;;7.22;2.40;;;;;;;;;;7409549;19;20007;-77
2023/04/23 16:53:26;;;;;;;6.95;2.67;;;;;;;;;;7407668;19;20011;-77
2023/04/23 16:55:52;;;;;;;7.37;2.50;;;;;;;;;;7410871;19;20010;-77
2023/04/23 16:58:17;;;;;;;5.87;2.50;;;;;;;;;;7390380;19;20015;-78
2023/04/23 17:00:43;;;;;;;6.22;2.90;;;;;;;;;;7394012;19;20255;-77
2023/04/23 17:03:09;;;;;;;4.95;2.60;;;;;;;;;;7389799;19;20698;-77
2023/04/23 17:05:37;;;;;;;5.80;2.55;;;;;;;;;;7390795;19;20014;-77
2023/04/23 17:08:02;;;;;;;7.18;2.70;;;;;;;;;;7383505;19;20331;-78
2023/04/23 17:10:27;;;;;;;6.40;2.45;;;;;;;;;;7382993;19;20215;-80
2023/04/23 17:12:53;;;;;;;5.68;2.40;;;;;;;;;;7333822;19;20473;-82
2023/04/23 17:15:18;;;;;;;6.00;2.60;;;;;;;;;;7348824;19;20007;-80
2023/04/23 17:17:43;;;;;;;6.65;2.80;;;;;;;;;;7344116;19;19999;-82
2023/04/23 17:20:09;;;;;;;5.88;2.53;;;;;;;;;;7341878;19;20026;-80
2023/04/23 17:22:34;;;;;;;7.93;2.70;;;;;;;;;;7333662;19;20098;-79
2023/04/23 17:24:59;;;;;;;6.87;2.83;;;;;;;;;;7342374;19;20002;-78
2023/04/23 17:27:25;;;;;;;6.53;2.90;;;;;;;;;;7335148;19;20247;-78
2023/04/23 17:29:50;;;;;;;5.32;2.60;;;;;;;;;;7336580;19;20236;-83
2023/04/23 17:32:15;;;;;;;8.57;2.70;;;;;;;;;;7333090;19;20048;-81
2023/04/23 17:34:41;;;;;;;5.53;2.83;;;;;;;;;;7327061;19;20998;-81
2023/04/23 17:37:06;;;;;;;10.00;3.20;;;;;;;;;;7336348;19;20002;-82
2023/04/23 17:39:31;;;;;;;7.53;3.33;;;;;;;;;;7320911;19;20013;-80
2023/04/23 17:41:57;;;;;;;6.93;2.90;;;;;;;;;;7336588;19;20828;-80
2023/04/23 17:44:22;;;;;;;8.77;3.55;;;;;;;;;;7339902;19;20834;-80
2023/04/23 17:46:47;;;;;;;9.93;3.77;;;;;;;;;;7334181;19;20346;-80
2023/04/23 17:49:13;;;;;;;8.13;3.58;;;;;;;;;;7342348;19;20242;-81
2023/04/23 17:51:38;;;;;;;6.20;2.72;;;;;;;;;;7330037;19;20002;-80
2023/04/23 17:54:04;;;;;;;5.82;2.60;;;;;;;;;;7337928;19;19998;-80
2023/04/23 17:56:29;;;;;;;6.15;2.72;;;;;;;;;;7331193;19;20014;-81
2023/04/23 17:58:54;;;;;;;5.13;3.15;;;;;;;;;;7332823;19;20543;-82
2023/04/23 18:01:20;;;;;;;6.47;3.00;;;;;;;;;;7341132;19;20007;-80
2023/04/23 18:03:46;;;;;;;6.18;2.60;;;;;;;;;;7325416;19;20934;-82
2023/04/23 18:06:11;;;;;;;5.80;2.80;;;;;;;;;;7320346;19;20353;-79
2023/04/23 18:08:36;;;;;;;7.82;2.78;;;;;;;;;;7328599;19;20543;-80
2023/04/23 18:11:03;;;;;;;6.17;2.97;;;;;;;;;;7338545;19;20023;-80
2023/04/23 18:13:28;;;;;;;5.53;2.58;;;;;;;;;;7331231;19;20236;-81
2023/04/23 18:15:54;;;;;;;4.35;2.03;;;;;;;;;;7330373;19;20050;-81
2023/04/23 18:18:20;;;;;;;5.90;2.70;;;;;;;;;;7334148;19;20290;-78
2023/04/23 18:20:46;;;;;;;6.35;2.67;;;;;;;;;;7322334;19;20048;-81
2023/04/23 18:23:11;;;;;;;7.28;2.65;;;;;;;;;;7330068;19;20002;-82
2023/04/23 18:25:37;;;;;;;6.60;3.15;;;;;;;;;;7325083;19;20018;-82
2023/04/23 18:28:02;;;;;;;7.45;2.67;;;;;;;;;;7327721;19;20616;-80
2023/04/23 18:30:27;;;;;;;5.83;2.73;;;;;;;;;;7330456;19;20396;-79
2023/04/23 18:33:06;;;;;;;6.28;2.60;;;;;;;;;;7323851;19;19999;-83
2023/04/23 18:35:31;;;;;;;5.32;2.20;;;;;;;;;;7329659;19;20568;-81
2023/04/23 18:38:05;;;;;;;5.05;2.50;;;;;;;;;;7337864;19;20526;-82
2023/04/23 18:40:30;;;;;;;4.38;2.03;;;;;;;;;;7345885;19;20321;-80
2023/04/23 18:42:56;;;;;;;4.97;1.90;;;;;;;;;;7330131;19;20016;-80
2023/04/23 18:45:21;;;;;;;4.18;1.88;;;;;;;;;;7343926;19;19998;-82
2023/04/23 18:47:50;;;;;;;4.22;1.67;;;;;;;;;;7342272;19;20394;-82
2023/04/23 18:50:34;;;;;;;4.70;1.70;;;;;;;;;;7337776;19;19998;-80
2023/04/23 18:53:00;;;;;;;5.22;1.92;;;;;;;;;;7340907;19;20523;-81
2023/04/23 18:55:25;;;;;;;7.50;1.50;;;;;;;;;;7347236;19;20057;-79
2023/04/23 18:57:50;;;;;;;4.90;1.70;;;;;;;;;;7335928;19;20075;-79
2023/04/23 19:00:15;;;;;;;3.90;1.30;;;;;;;;;;7341417;19;20003;-80
2023/04/23 19:02:40;;;;;;;3.38;1.25;;;;;;;;;;7339641;19;20025;-81
2023/04/23 19:05:06;;;;;;;3.87;1.20;;;;;;;;;;7339621;19;20022;-80
2023/04/23 19:07:35;;;;;;;5.35;1.15;;;;;;;;;;7336634;19;20244;-81
2023/04/23 19:10:01;;;;;;;4.07;0.98;;;;;;;;;;7340399;19;20009;-80
2023/04/23 19:12:26;;;;;;;3.60;1.10;;;;;;;;;;7320028;19;20002;-81
2023/04/23 19:14:51;;;;;;;2.75;0.90;;;;;;;;;;7321675;19;20617;-80
2023/04/23 19:17:16;;;;;;;4.23;1.20;;;;;;;;;;7338049;19;20006;-80
2023/04/23 19:19:41;;;;;;;3.20;1.20;;;;;;;;;;7336466;19;21045;-80
2023/04/23 19:22:06;;;;;;;4.72;1.20;;;;;;;;;;7342918;19;20249;-79
2023/04/23 19:24:33;;;;;;;3.27;1.00;;;;;;;;;;7338152;19;20006;-83
2023/04/23 19:26:58;;;;;;;3.83;1.10;;;;;;;;;;7334625;19;20232;-81
2023/04/23 19:29:23;;;;;;;3.53;1.17;;;;;;;;;;7338608;19;19999;-79
2023/04/23 19:31:48;;;;;;;4.00;1.07;;;;;;;;;;7348553;19;20231;-79
2023/04/23 19:34:15;;;;;;;2.22;1.00;;;;;;;;;;7356022;19;20243;-80
2023/04/23 19:36:40;;;;;;;2.75;0.98;;;;;;;;;;7328090;19;20012;-80
2023/04/23 19:39:05;;;;;;;3.80;1.20;;;;;;;;;;7342342;19;20062;-82
2023/04/23 19:41:31;;;;;;;3.00;1.27;;;;;;;;;;7344805;19;20242;-82
2023/04/23 19:43:56;;;;;;;3.87;1.30;;;;;;;;;;7324833;19;19998;-79
2023/04/23 19:46:21;;;;;;;4.13;1.37;;;;;;;;;;7339872;19;20243;-81
2023/04/23 19:48:46;;;;;;;3.60;1.13;;;;;;;;;;7338908;19;20227;-81
2023/04/23 19:51:11;;;;;;;3.70;1.20;;;;;;;;;;7330328;19;19994;-81
2023/04/23 19:53:36;;;;;;;3.40;1.27;;;;;;;;;;7334901;19;20247;-79
2023/04/23 19:56:02;;;;;;;4.85;1.30;;;;;;;;;;7340635;19;21212;-79
2023/04/23 19:58:27;;;;;;;4.63;1.33;;;;;;;;;;7337570;19;20018;-81
2023/04/23 20:00:52;;;;;;;5.72;1.40;;;;;;;;;;7336922;19;20003;-81
2023/04/23 20:03:18;;;;;;;2.28;1.05;;;;;;;;;;7336698;19;20126;-79
2023/04/23 20:05:44;;;;;;;3.92;1.30;;;;;;;;;;7332536;19;20423;-81
2023/04/23 20:08:24;;;;;;;3.75;1.40;;;;;;;;;;7335697;19;20009;-81
2023/04/23 20:10:49;;;;;;;4.65;1.58;;;;;;;;;;7331616;19;20023;-81
2023/04/23 20:13:14;;;;;;;5.30;1.60;;;;;;;;;;7335215;19;20011;-79
2023/04/23 20:15:39;;;;;;;3.38;1.30;;;;;;;;;;7331150;19;20009;-82
2023/04/23 20:18:05;;;;;;;6.25;1.50;;;;;;;;;;7330365;19;20436;-80
2023/04/23 20:20:30;;;;;;;3.33;1.40;;;;;;;;;;7321370;19;20007;-78
2023/04/23 20:22:55;;;;;;;4.60;1.70;;;;;;;;;;7326693;19;20315;-81
2023/04/23 20:25:22;;;;;;;3.30;1.43;;;;;;;;;;7340146;19;20538;-80
2023/04/23 20:27:47;;;;;;;4.30;1.30;;;;;;;;;;7322152;19;21038;-80
2023/04/23 20:30:12;;;;;;;4.28;1.70;;;;;;;;;;7324748;19;20006;-80
2023/04/23 20:32:37;;;;;;;4.05;1.30;;;;;;;;;;7328560;19;20034;-81
2023/04/23 20:35:03;;;;;;;3.40;1.20;;;;;;;;;;7331483;19;20361;-81
2023/04/23 20:37:28;;;;;;;4.07;1.42;;;;;;;;;;7336541;19;20757;-80
2023/04/23 20:39:54;;;;;;;7.30;1.47;;;;;;;;;;7333064;19;20756;-78
2023/04/23 20:42:19;;;;;;;3.20;1.42;;;;;;;;;;7334055;19;21187;-81
2023/04/23 20:44:45;;;;;;;3.25;1.33;;;;;;;;;;7332983;19;19999;-81
2023/04/23 20:47:11;;;;;;;5.43;1.70;;;;;;;;;;7339709;19;20001;-79
2023/04/23 20:49:37;;;;;;;3.28;1.33;;;;;;;;;;7336944;19;20066;-81
2023/04/23 20:52:02;;;;;;;4.75;1.48;;;;;;;;;;7331996;19;20003;-80
2023/04/23 20:54:28;;;;;;;4.82;1.60;;;;;;;;;;7345861;19;20454;-80
2023/04/23 20:56:53;;;;;;;3.42;1.30;;;;;;;;;;7337833;19;20602;-78
2023/04/23 20:59:19;;;;;;;3.03;1.25;;;;;;;;;;7341537;19;19994;-81
2023/04/23 21:01:44;;;;;;;2.95;1.38;;;;;;;;;;7342435;19;20016;-81
2023/04/23 21:04:09;;;;;;;4.25;1.70;;;;;;;;;;7339621;19;20542;-81
2023/04/23 21:06:35;;;;;;;5.70;1.70;;;;;;;;;;7334428;19;19998;-81
2023/04/23 21:09:00;;;;;;;4.72;1.55;;;;;;;;;;7364202;19;20482;-77
2023/04/23 21:11:26;;;;;;;4.00;1.70;;;;;;;;;;7372213;19;19998;-78
2023/04/23 21:13:51;;;;;;;5.45;1.70;;;;;;;;;;7348464;19;19995;-82
2023/04/23 21:16:17;;;;;;;4.68;1.70;;;;;;;;;;7337161;19;20111;-81
2023/04/23 21:18:45;;;;;;;6.32;1.70;;;;;;;;;;7344388;19;20074;-81
2023/04/23 21:21:10;;;;;;;4.22;1.88;;;;;;;;;;7338769;19;20442;-81
2023/04/23 21:23:35;;;;;;;6.80;2.03;;;;;;;;;;7354162;19;20511;-81
2023/04/23 21:26:00;;;;;;;5.57;1.42;;;;;;;;;;7368379;19;20468;-79
2023/04/23 21:28:25;;;;;;;4.18;1.50;;;;;;;;;;7366536;19;20007;-80
2023/04/23 21:30:51;;;;;;;4.47;1.33;;;;;;;;;;7363860;19;20636;-79
2023/04/23 21:33:18;;;;;;;6.68;1.40;;;;;;;;;;7338688;19;20605;-78
2023/04/23 21:35:43;;;;;;;5.15;1.30;;;;;;;;;;7334512;19;20010;-81
2023/04/23 21:38:08;;;;;;;4.82;1.33;;;;;;;;;;7342667;19;19998;-78
2023/04/23 21:40:35;;;;;;;3.60;1.33;;;;;;;;;;7341608;19;20618;-81
2023/04/23 21:43:00;;;;;;;4.57;1.48;;;;;;;;;;7336930;19;20007;-80
2023/04/23 21:45:25;;;;;;;6.38;1.48;;;;;;;;;;7343851;19;20009;-80
2023/04/23 21:47:51;;;;;;;5.53;1.50;;;;;;;;;;7343842;19;19999;-78
2023/04/23 21:50:17;;;;;;;3.80;1.43;;;;;;;;;;7334346;19;20558;-80
2023/04/23 21:52:42;;;;;;;4.78;1.50;;;;;;;;;;7338379;19;20254;-80
2023/04/23 21:55:07;;;;;;;8.60;1.60;;;;;;;;;;7343615;19;19994;-78
2023/04/23 21:57:33;;;;;;;4.75;1.70;;;;;;;;;;7340276;19;20321;-79
2023/04/23 21:59:58;;;;;;;4.50;1.50;;;;;;;;;;7333757;19;19999;-78
2023/04/23 22:02:23;;;;;;;4.07;1.45;;;;;;;;;;7308668;19;20131;-76
2023/04/23 22:04:48;;;;;;;4.50;1.63;;;;;;;;;;7347132;19;20011;-76
2023/04/23 22:07:14;;;;;;;5.53;1.70;;;;;;;;;;7348048;19;20270;-76
2023/04/23 22:09:39;;;;;;;4.78;1.50;;;;;;;;;;7315189;19;20409;-75
2023/04/23 22:12:05;;;;;;;4.05;1.70;;;;;;;;;;7341350;19;20351;-76
2023/04/23 22:14:31;;;;;;;6.97;1.88;;;;;;;;;;7342830;19;20005;-76
2023/04/23 22:16:58;;;;;;;3.80;1.70;;;;;;;;;;7337475;19;20010;-76
2023/04/23 22:19:26;;;;;;;5.15;1.50;;;;;;;;;;7338795;19;20125;-78
2023/04/23 22:21:51;;;;;;;6.50;1.80;;;;;;;;;;7340920;19;20006;-75
2023/04/23 22:24:16;;;;;;;3.30;1.52;;;;;;;;;;7344597;19;20435;-76
2023/04/23 22:26:42;;;;;;;6.30;1.83;;;;;;;;;;7337811;19;20444;-78
2023/04/23 22:29:07;;;;;;;4.60;1.80;;;;;;;;;;7335008;19;20572;-78
2023/04/23 22:31:33;;;;;;;4.32;1.70;;;;;;;;;;7347624;19;20698;-78
2023/04/23 22:33:58;;;;;;;3.13;1.40;;;;;;;;;;7358662;19;19999;-78
2023/04/23 22:36:24;;;;;;;5.20;1.70;;;;;;;;;;7348467;19;20044;-78
2023/04/23 22:38:49;;;;;;;4.20;1.60;;;;;;;;;;7334859;19;19998;-78
2023/04/23 22:41:14;;;;;;;4.95;1.77;;;;;;;;;;7337431;19;20001;-78
2023/04/23 22:43:40;;;;;;;3.97;1.70;;;;;;;;;;7338823;19;20369;-78
2023/04/23 22:46:05;;;;;;;4.50;1.77;;;;;;;;;;7340760;19;20247;-77
2023/04/23 22:48:30;;;;;;;5.22;1.90;;;;;;;;;;7342190;19;20730;-77
2023/04/23 22:50:57;;;;;;;3.73;1.63;;;;;;;;;;7329464;19;19995;-78
2023/04/23 22:53:22;;;;;;;8.68;1.90;;;;;;;;;;7342100;19;20231;-78
2023/04/23 22:55:48;;;;;;;5.68;1.80;;;;;;;;;;7340384;19;20440;-75
2023/04/23 22:58:13;;;;;;;3.63;1.73;;;;;;;;;;7332124;19;20350;-78
2023/04/23 23:00:38;;;;;;;3.90;1.80;;;;;;;;;;7341526;19;20735;-76
2023/04/23 23:03:03;;;;;;;7.23;2.10;;;;;;;;;;7336817;19;20005;-75
2023/04/23 23:05:29;;;;;;;3.80;1.77;;;;;;;;;;7337311;19;20251;-76
2023/04/23 23:07:55;;;;;;;4.05;2.00;;;;;;;;;;7332609;19;20512;-76
2023/04/23 23:10:20;;;;;;;4.05;2.00;;;;;;;;;;7334152;19;20094;-76
2023/04/23 23:12:45;;;;;;;4.35;1.70;;;;;;;;;;7337544;19;20590;-74
2023/04/23 23:15:11;;;;;;;7.55;2.35;;;;;;;;;;7340310;19;19999;-78
2023/04/23 23:17:36;;;;;;;5.10;2.28;;;;;;;;;;7341624;19;20020;-77
2023/04/23 23:20:01;;;;;;;5.55;2.22;;;;;;;;;;7331812;19;20002;-77
2023/04/23 23:22:26;;;;;;;6.00;2.00;;;;;;;;;;7338327;19;20006;-78
2023/04/23 23:24:51;;;;;;;4.70;2.37;;;;;;;;;;7337165;19;20284;-77
2023/04/23 23:27:16;;;;;;;5.53;2.50;;;;;;;;;;7335991;19;20220;-77
2023/04/23 23:29:42;;;;;;;5.90;2.33;;;;;;;;;;7336489;19;20271;-77
2023/04/23 23:32:07;;;;;;;4.80;2.28;;;;;;;;;;7345337;19;20248;-78
2023/04/23 23:34:32;;;;;;;6.65;2.30;;;;;;;;;;7337936;19;20006;-77
2023/04/23 23:36:58;;;;;;;4.90;2.20;;;;;;;;;;7360894;19;20296;-77
2023/04/23 23:39:23;;;;;;;5.20;2.70;;;;;;;;;;7330472;19;20716;-77
2023/04/23 23:41:48;;;;;;;4.43;2.40;;;;;;;;;;7335249;19;20755;-78
2023/04/23 23:44:14;;;;;;;4.50;2.60;;;;;;;;;;7338823;19;20733;-77
2023/04/23 23:46:40;;;;;;;5.32;2.72;;;;;;;;;;7341509;19;20010;-78
2023/04/23 23:49:05;;;;;;;7.30;3.47;;;;;;;;;;7337968;19;20360;-77
2023/04/23 23:51:31;;;;;;;4.70;2.88;;;;;;;;;;7336558;19;20287;-77
2023/04/23 23:53:56;;;;;;;6.82;3.28;;;;;;;;;;7337663;19;20715;-77
2023/04/23 23:56:21;;;;;;;6.00;2.95;;;;;;;;;;7338271;19;20443;-77
2023/04/23 23:58:46;;;;;;;5.53;3.03;;;;;;;;;;7336878;19;20628;-77
